Riyadh, Saudi Arabia

2:23 PM AST on February 11, 2016 (GMT +0300)
Alsahafah District Abo Mohammed | | Change Station
CLOSE
Current Station
Personal Weather Station
Location: Riyadh, RIYADH PROVINCE
Elevation: 2129 ft
Nearby Weather Stations

Elev 2129 ft 24.79 °N, 46.65 °E | Updated 8 minutes ago

Clear
Clear
71.6 °F
Feels Like 73 °F
N
9.4
Wind Variable Wind from NW

Today
High -- | Low -- °F
--% Chance of Precip.
Yesterday
High -- | Low -- °F
Precip. -- in
Pressure 30.06 in
Visibility 3.7 miles
Clouds Clear
Heat Index 73 °F
Dew Point 16 °F
Humidity 12%
Rainfall 0.00 in
Snow Depth Not available.
6:30 AM 5:44 PM
Waxing Crescent, 11% visible
METAR OERK 111100Z 32018KT 6000 SKC 22/M10 Q1018 NOSIG
Pressure 30.06 in
Visibility 3.7 miles
Clouds Clear
Heat Index 73 °F
Dew Point 16 °F
Humidity 12%
Rainfall 0.00 in
Snow Depth Not available.
6:30 AM 5:44 PM
Waxing Crescent, 11% visible
METAR OERK 111100Z 32018KT 6000 SKC 22/M10 Q1018 NOSIG

10-Day Weather Forecast

No radar image for this location.
×

Almanac

Astronomy

Feb. 11, 2016 Rise Set
Actual Time
Civil Twilight
Nautical Twilight
Astronomical Twilight
Moon
Length of Visible Light
Length of Day
Tomorrow will be .
, % of the Moon is Illuminated

Today's Extremes

Country Highs Country Lows

Community

WunderPhotos

Upload Photos

1,892,030 photos uploaded!

WunderBlog® & News

Nearby

Air Quality

  Air Quality AQ Index Pollutant
Not available.

Snow Depth

Station Depth Elevation

Earthquake Activity

City Distance Mag. Time & Date
Minimum magnitude displayed is 2.5.

Coastal Water Temperatures

Place Temperature

Stations

Nearby Weather Stations

Station Location Temp. Windchill Dew Point Humidity Wind Precip. Elev Updated Type